Time;durP1;ratioP1;P1;durP2;ratioP2;P2;SDS_P1;SDS_P2;PMS_P1;PMS_P2;Temp;Humidity;BMP_temperature;BMP_pressure;BME280_temperature;BME280_humidity;BME280_pressure;Samples;Min_cycle;Max_cycle;Signal;HPM_P1;HPM_P2
2021/04/01 00:00:50;;;;;;;57.65;27.35;;;;;;;;;;5055509;28;20033;-83
2021/04/01 00:03:16;;;;;;;51.70;26.42;;;;;;;;;;5055580;28;20101;-83
2021/04/01 00:05:42;;;;;;;57.70;28.27;;;;;;;;;;5055529;28;20052;-82
2021/04/01 00:08:08;;;;;;;55.92;26.70;;;;;;;;;;5055580;28;20032;-82
2021/04/01 00:10:38;;;;;;;54.35;26.58;;;;;;;;;;5073085;28;20041;-82
2021/04/01 00:13:04;;;;;;;56.78;28.20;;;;;;;;;;5055136;28;20045;-82
2021/04/01 00:15:30;;;;;;;59.53;28.35;;;;;;;;;;5055262;28;20430;-82
2021/04/01 00:17:56;;;;;;;50.92;26.10;;;;;;;;;;5055271;28;20089;-82
2021/04/01 00:20:22;;;;;;;57.45;26.17;;;;;;;;;;5072956;28;20040;-82
2021/04/01 00:22:48;;;;;;;54.60;26.58;;;;;;;;;;5072907;28;20041;-83
2021/04/01 00:25:17;;;;;;;56.88;28.70;;;;;;;;;;5072849;28;20036;-81
2021/04/01 00:27:43;;;;;;;53.33;27.15;;;;;;;;;;5072812;28;20044;-82
2021/04/01 00:30:09;;;;;;;52.95;25.95;;;;;;;;;;5055319;28;20032;-83
2021/04/01 00:32:35;;;;;;;52.92;26.95;;;;;;;;;;5038417;28;20041;-81
2021/04/01 00:35:02;;;;;;;58.55;28.60;;;;;;;;;;5054638;28;20399;-82
2021/04/01 00:37:28;;;;;;;59.25;27.38;;;;;;;;;;5072559;28;20056;-82
2021/04/01 00:39:54;;;;;;;61.78;29.05;;;;;;;;;;5072629;28;20040;-82
2021/04/01 00:42:19;;;;;;;59.47;28.02;;;;;;;;;;5054656;28;20405;-81
2021/04/01 00:44:46;;;;;;;56.08;26.48;;;;;;;;;;5072367;28;20045;-82
2021/04/01 00:47:12;;;;;;;60.42;29.65;;;;;;;;;;5072392;28;20483;-82
2021/04/01 00:49:38;;;;;;;61.65;29.83;;;;;;;;;;5054693;28;20040;-82
2021/04/01 00:52:05;;;;;;;63.45;30.02;;;;;;;;;;5054464;28;20043;-82
2021/04/01 00:54:31;;;;;;;58.03;28.33;;;;;;;;;;5054286;28;20036;-83
2021/04/01 00:56:57;;;;;;;61.95;29.80;;;;;;;;;;5037905;28;20509;-83
2021/04/01 00:59:24;;;;;;;70.45;29.90;;;;;;;;;;5054514;28;20040;-82
2021/04/01 01:01:56;;;;;;;63.08;30.95;;;;;;;;;;5054606;28;20365;-83
2021/04/01 01:04:22;;;;;;;69.78;33.10;;;;;;;;;;5038713;28;20051;-82
2021/04/01 01:06:48;;;;;;;70.75;32.72;;;;;;;;;;5054289;28;20461;-82
2021/04/01 01:09:14;;;;;;;70.57;32.83;;;;;;;;;;5072186;28;20044;-82
2021/04/01 01:11:40;;;;;;;74.28;34.63;;;;;;;;;;5037807;28;20075;-83
2021/04/01 01:14:07;;;;;;;80.60;35.30;;;;;;;;;;5071971;28;20067;-82
2021/04/01 01:16:33;;;;;;;71.50;32.05;;;;;;;;;;5054313;28;20086;-82
2021/04/01 01:18:59;;;;;;;74.55;35.53;;;;;;;;;;5054409;28;20395;-81
2021/04/01 01:21:25;;;;;;;72.80;33.08;;;;;;;;;;5054304;28;20044;-81
2021/04/01 01:23:51;;;;;;;73.15;35.22;;;;;;;;;;5071900;28;20044;-82
2021/04/01 01:26:18;;;;;;;64.63;31.17;;;;;;;;;;5054211;28;20032;-83
2021/04/01 01:28:44;;;;;;;65.40;30.95;;;;;;;;;;5072163;28;20516;-83
2021/04/01 01:31:11;;;;;;;72.38;34.45;;;;;;;;;;5054147;28;20426;-82
2021/04/01 01:33:44;;;;;;;65.97;31.83;;;;;;;;;;5054278;28;20207;-82
2021/04/01 01:36:10;;;;;;;65.88;30.10;;;;;;;;;;5071805;28;20041;-82
2021/04/01 01:38:36;;;;;;;76.65;34.13;;;;;;;;;;5054056;28;20119;-82
2021/04/01 01:41:02;;;;;;;80.53;36.38;;;;;;;;;;5054055;28;20111;-82
2021/04/01 01:43:28;;;;;;;78.00;35.53;;;;;;;;;;5054117;28;20032;-81
2021/04/01 01:45:55;;;;;;;72.85;32.05;;;;;;;;;;5071685;28;20131;-82
2021/04/01 01:48:21;;;;;;;79.25;36.58;;;;;;;;;;5037695;28;20123;-83
2021/04/01 01:50:47;;;;;;;71.20;32.72;;;;;;;;;;5053754;28;20545;-82
2021/04/01 01:53:13;;;;;;;82.43;36.85;;;;;;;;;;5053982;28;20470;-83
2021/04/01 01:55:39;;;;;;;77.35;35.45;;;;;;;;;;5053961;28;20337;-81
2021/04/01 01:58:05;;;;;;;81.15;36.53;;;;;;;;;;5037476;28;20127;-83
2021/04/01 02:00:32;;;;;;;85.82;38.35;;;;;;;;;;5071763;28;20047;-82
2021/04/01 02:02:59;;;;;;;79.53;36.70;;;;;;;;;;5071574;28;20062;-82
2021/04/01 02:05:25;;;;;;;91.60;37.40;;;;;;;;;;5053770;28;20041;-82
2021/04/01 02:07:51;;;;;;;71.85;32.72;;;;;;;;;;5057818;28;20064;-82
2021/04/01 02:10:21;;;;;;;82.70;37.83;;;;;;;;;;5075568;28;20147;-82
2021/04/01 02:12:47;;;;;;;89.88;39.20;;;;;;;;;;5075539;28;20036;-82
2021/04/01 02:15:17;;;;;;;81.53;37.55;;;;;;;;;;5057588;28;20060;-82
2021/04/01 02:17:43;;;;;;;90.72;40.20;;;;;;;;;;5057641;28;20055;-83
2021/04/01 02:20:10;;;;;;;93.05;39.83;;;;;;;;;;5057455;28;20055;-82
2021/04/01 02:22:36;;;;;;;90.07;39.97;;;;;;;;;;5075128;28;20036;-82
2021/04/01 02:25:02;;;;;;;79.15;36.33;;;;;;;;;;5057337;28;20040;-82
2021/04/01 02:27:28;;;;;;;90.72;38.15;;;;;;;;;;5057449;28;20044;-81
2021/04/01 02:29:54;;;;;;;91.60;39.38;;;;;;;;;;5075041;28;20435;-83
2021/04/01 02:32:20;;;;;;;94.60;41.08;;;;;;;;;;5075142;28;20043;-83
2021/04/01 02:34:47;;;;;;;75.53;34.45;;;;;;;;;;5074733;28;20036;-83
2021/04/01 02:37:13;;;;;;;90.43;38.80;;;;;;;;;;5074878;28;20040;-83
2021/04/01 02:39:39;;;;;;;87.40;38.67;;;;;;;;;;5040567;28;20032;-82
2021/04/01 02:42:05;;;;;;;97.05;41.20;;;;;;;;;;5074834;28;20040;-82
2021/04/01 02:44:32;;;;;;;78.22;35.63;;;;;;;;;;5074670;28;20040;-82
2021/04/01 02:46:58;;;;;;;92.72;40.80;;;;;;;;;;5040429;28;20072;-82
2021/04/01 02:49:24;;;;;;;85.43;36.90;;;;;;;;;;5034634;28;20076;-82
2021/04/01 02:51:50;;;;;;;94.03;39.05;;;;;;;;;;5034995;28;20042;-82
2021/04/01 02:54:16;;;;;;;88.82;39.22;;;;;;;;;;5033386;28;20436;-82
2021/04/01 02:56:42;;;;;;;89.05;38.40;;;;;;;;;;5034639;28;20073;-83
2021/04/01 02:59:09;;;;;;;85.53;37.95;;;;;;;;;;5034598;28;20460;-82
2021/04/01 03:01:37;;;;;;;88.90;39.20;;;;;;;;;;5033389;28;20041;-82
2021/04/01 03:04:07;;;;;;;82.05;36.15;;;;;;;;;;5033154;28;20120;-82
2021/04/01 03:06:33;;;;;;;83.50;36.35;;;;;;;;;;5033302;28;20033;-82
2021/04/01 03:08:59;;;;;;;76.15;33.83;;;;;;;;;;5034472;28;20041;-82
2021/04/01 03:11:25;;;;;;;89.32;39.28;;;;;;;;;;5034406;28;20060;-82
2021/04/01 03:13:51;;;;;;;99.15;41.85;;;;;;;;;;5034842;28;20037;-83
2021/04/01 03:16:17;;;;;;;91.97;39.50;;;;;;;;;;5049403;28;20069;-83
2021/04/01 03:18:43;;;;;;;97.07;40.83;;;;;;;;;;5032956;28;20049;-83
2021/04/01 03:21:09;;;;;;;93.38;43.20;;;;;;;;;;5034223;28;20029;-83
2021/04/01 03:23:35;;;;;;;89.35;40.30;;;;;;;;;;5049594;28;20076;-83
2021/04/01 03:26:01;;;;;;;86.90;39.08;;;;;;;;;;5034003;28;20064;-82
2021/04/01 03:28:27;;;;;;;93.90;40.63;;;;;;;;;;5034104;28;20493;-82
2021/04/01 03:31:00;;;;;;;99.43;42.65;;;;;;;;;;5034071;28;20519;-83
2021/04/01 03:33:27;;;;;;;101.15;42.85;;;;;;;;;;5048384;28;20044;-82
2021/04/01 03:35:53;;;;;;;92.68;40.97;;;;;;;;;;5033889;28;20073;-82
2021/04/01 03:38:19;;;;;;;93.65;40.38;;;;;;;;;;5049250;28;20116;-82
2021/04/01 03:40:46;;;;;;;99.18;41.80;;;;;;;;;;5033886;28;20326;-82
2021/04/01 03:43:12;;;;;;;103.43;42.38;;;;;;;;;;5033821;28;20504;-82
2021/04/01 03:45:38;;;;;;;104.80;43.00;;;;;;;;;;5036212;28;20042;-83
2021/04/01 03:48:04;;;;;;;105.43;45.63;;;;;;;;;;5039309;28;20045;-83
2021/04/01 03:50:30;;;;;;;105.22;44.63;;;;;;;;;;5039145;28;20040;-83
2021/04/01 03:52:56;;;;;;;108.70;45.38;;;;;;;;;;5039204;28;20036;-81
2021/04/01 03:55:38;;;;;;;104.75;42.75;;;;;;;;;;5073522;28;20036;-84
2021/04/01 03:58:42;;;;;;;110.85;46.60;;;;;;;;;;5057885;28;20440;-84
2021/04/01 04:03:49;;;;;;;106.35;45.40;;;;;;;;;;5057503;28;20063;-83
2021/04/01 04:06:54;;;;;;;110.90;45.08;;;;;;;;;;5055274;28;20037;-83
2021/04/01 04:14:33;;;;;;;115.60;48.28;;;;;;;;;;5072984;28;20096;-83
2021/04/01 04:16:59;;;;;;;106.82;45.58;;;;;;;;;;5057261;28;20531;-83
2021/04/01 04:19:26;;;;;;;110.97;46.40;;;;;;;;;;5055493;28;20036;-83
2021/04/01 04:21:52;;;;;;;114.13;47.42;;;;;;;;;;5072909;28;20112;-83
2021/04/01 04:24:18;;;;;;;114.32;48.25;;;;;;;;;;5072821;28;20281;-83
2021/04/01 04:26:44;;;;;;;112.97;47.20;;;;;;;;;;5038477;28;20454;-83
2021/04/01 04:29:10;;;;;;;109.07;45.20;;;;;;;;;;5054531;28;20041;-83
2021/04/01 04:31:36;;;;;;;115.88;48.60;;;;;;;;;;5038401;28;20062;-81
2021/04/01 04:34:02;;;;;;;118.60;48.10;;;;;;;;;;5072517;28;20036;-83
2021/04/01 04:36:28;;;;;;;107.85;46.38;;;;;;;;;;5055157;28;20477;-83
2021/04/01 04:38:54;;;;;;;104.15;45.15;;;;;;;;;;5038422;28;20517;-83
2021/04/01 04:41:20;;;;;;;109.18;46.25;;;;;;;;;;5072549;28;20036;-83
2021/04/01 04:43:46;;;;;;;110.97;49.00;;;;;;;;;;5072437;28;20089;-83
2021/04/01 04:46:13;;;;;;;110.40;45.72;;;;;;;;;;5072403;28;20568;-83
2021/04/01 04:48:39;;;;;;;113.40;47.08;;;;;;;;;;5054754;28;20040;-83
2021/04/01 04:51:05;;;;;;;110.65;47.17;;;;;;;;;;5054525;28;20033;-83
2021/04/01 04:53:31;;;;;;;110.05;47.03;;;;;;;;;;5072420;28;20536;-83
2021/04/01 04:56:18;;;;;;;108.53;46.70;;;;;;;;;;5038007;28;20400;-83
2021/04/01 04:58:58;;;;;;;116.22;48.78;;;;;;;;;;5040741;28;20131;-82
2021/04/01 05:06:55;;;;;;;106.55;45.05;;;;;;;;;;5072069;28;20089;-82
2021/04/01 05:09:21;;;;;;;111.65;46.20;;;;;;;;;;5054492;28;20036;-82
2021/04/01 05:11:47;;;;;;;107.28;44.85;;;;;;;;;;5054566;28;20116;-82
2021/04/01 05:14:15;;;;;;;110.72;45.03;;;;;;;;;;5054283;28;20044;-82
2021/04/01 05:16:41;;;;;;;105.70;45.92;;;;;;;;;;5072113;28;20039;-82
2021/04/01 05:19:10;;;;;;;111.47;47.88;;;;;;;;;;5054373;28;20112;-82
2021/04/01 05:24:07;;;;;;;112.78;47.35;;;;;;;;;;5071978;28;20040;-83
2021/04/01 05:29:08;;;;;;;107.03;46.17;;;;;;;;;;5054696;28;20139;-83
2021/04/01 05:31:36;;;;;;;;;;;;;;;;;;5055690;28;20044;-83
2021/04/01 05:34:03;;;;;;;121.32;51.38;;;;;;;;;;5071694;28;20057;-81
2021/04/01 05:36:31;;;;;;;115.43;51.08;;;;;;;;;;5054285;28;20068;-83
2021/04/01 05:38:59;;;;;;;116.85;48.90;;;;;;;;;;5054256;28;20472;-83
2021/04/01 05:41:27;;;;;;;112.65;46.70;;;;;;;;;;5055968;28;20028;-82
2021/04/01 05:44:02;;;;;;;102.93;45.28;;;;;;;;;;5041420;28;20048;-83
2021/04/01 05:49:20;;;;;;;83.75;34.42;;;;;;;;;;5058430;28;20037;-83
2021/04/01 05:52:08;;;;;;;60.42;21.70;;;;;;;;;;5061588;28;20440;-84
2021/04/01 05:57:26;;;;;;;39.42;15.13;;;;;;;;;;5059254;28;20064;-84
2021/04/01 06:02:33;;;;;;;36.72;12.05;;;;;;;;;;5059115;28;20036;-85
2021/04/01 06:05:04;;;;;;;29.63;9.57;;;;;;;;;;5058896;28;20496;-84
2021/04/01 06:07:31;;;;;;;22.75;7.13;;;;;;;;;;5074500;28;20033;-84
2021/04/01 06:09:58;;;;;;;26.48;7.82;;;;;;;;;;5074168;28;20488;-84
2021/04/01 06:12:31;;;;;;;19.70;6.70;;;;;;;;;;5075395;28;20262;-84
2021/04/01 06:15:10;;;;;;;26.58;8.52;;;;;;;;;;5057518;28;20513;-85
2021/04/01 06:17:36;;;;;;;25.08;6.32;;;;;;;;;;5057444;28;20045;-84
2021/04/01 06:20:06;;;;;;;22.15;6.22;;;;;;;;;;5074394;28;20033;-85
2021/04/01 06:22:32;;;;;;;18.23;5.18;;;;;;;;;;5074209;28;20036;-84
2021/04/01 06:24:59;;;;;;;18.98;4.80;;;;;;;;;;5057201;28;20472;-85
2021/04/01 06:27:35;;;;;;;22.60;5.57;;;;;;;;;;5057329;28;20124;-85
2021/04/01 06:32:39;;;;;;;14.70;4.53;;;;;;;;;;5073987;28;20105;-83
2021/04/01 06:35:10;;;;;;;14.90;3.60;;;;;;;;;;5073825;28;20046;-85
2021/04/01 06:40:14;;;;;;;18.13;3.13;;;;;;;;;;5074981;28;20048;-85
2021/04/01 06:42:47;;;;;;;17.52;3.22;;;;;;;;;;5057005;28;20028;-84
2021/04/01 06:45:13;;;;;;;14.73;3.13;;;;;;;;;;5074728;28;20411;-83
2021/04/01 06:47:40;;;;;;;12.82;3.03;;;;;;;;;;5072351;28;20048;-84
2021/04/01 06:50:19;;;;;;;16.95;2.92;;;;;;;;;;5060964;28;20043;-83
2021/04/01 06:53:17;;;;;;;16.27;2.47;;;;;;;;;;5061754;28;20044;-85
2021/04/01 06:55:44;;;;;;;16.70;3.78;;;;;;;;;;5071376;28;20049;-84
2021/04/01 06:58:22;;;;;;;15.57;2.50;;;;;;;;;;5055224;28;20044;-84
2021/04/01 07:03:42;;;;;;;14.73;2.95;;;;;;;;;;5041712;28;20044;-85
2021/04/01 07:06:18;;;;;;;9.52;2.03;;;;;;;;;;5055054;28;20047;-86
2021/04/01 07:11:33;;;;;;;12.55;2.97;;;;;;;;;;5071925;28;20043;-85
2021/04/01 07:14:02;;;;;;;14.63;2.75;;;;;;;;;;5071643;28;20472;-84
2021/04/01 07:16:40;;;;;;;12.20;2.38;;;;;;;;;;5054932;28;20047;-84
2021/04/01 07:30:45;;;;;;;15.75;2.80;;;;;;;;;;5072519;28;20550;-83
2021/04/01 07:48:27;;;;;;;14.95;2.72;;;;;;;;;;5093632;28;20433;-83
2021/04/01 07:50:53;;;;;;;16.55;3.03;;;;;;;;;;5075627;28;20479;-83
2021/04/01 07:53:23;;;;;;;14.52;2.78;;;;;;;;;;5075439;28;20042;-83
2021/04/01 07:58:54;;;;;;;14.77;2.88;;;;;;;;;;5093381;28;20437;-83
2021/04/01 08:04:07;;;;;;;13.13;2.97;;;;;;;;;;5077246;28;20487;-83
2021/04/01 08:06:35;;;;;;;13.30;3.03;;;;;;;;;;5075422;28;20046;-85
2021/04/01 08:09:08;;;;;;;12.57;2.88;;;;;;;;;;5058137;28;20074;-85
2021/04/01 08:11:36;;;;;;;;;;;;;;;;;;5076529;28;20089;-85
2021/04/01 08:14:17;;;;;;;12.02;3.03;;;;;;;;;;5074975;28;20011;-85
2021/04/01 08:17:10;;;;;;;15.23;2.80;;;;;;;;;;5093109;28;20051;-85
2021/04/01 08:19:31;;;;;;;13.15;2.58;;;;;;;;;;5092557;28;20052;-84
2021/04/01 08:21:58;;;;;;;13.43;3.30;;;;;;;;;;5075030;28;20085;-87
2021/04/01 08:24:30;;;;;;;13.52;2.58;;;;;;;;;;5058368;28;20475;-85
2021/04/01 08:35:06;;;;;;;13.13;4.28;;;;;;;;;;5077271;28;20094;-83
2021/04/01 08:37:33;;;;;;;10.57;4.88;;;;;;;;;;5074015;28;20141;-84
2021/04/01 08:40:00;;;;;;;9.52;4.25;;;;;;;;;;5074670;28;20383;-83
2021/04/01 08:42:44;;;;;;;20.25;5.13;;;;;;;;;;5074645;28;20046;-83
2021/04/01 08:45:46;;;;;;;11.13;3.17;;;;;;;;;;5073995;28;20051;-84
2021/04/01 08:48:05;;;;;;;11.70;3.15;;;;;;;;;;5076283;28;20056;-86
2021/04/01 08:50:49;;;;;;;9.25;3.33;;;;;;;;;;5074560;28;20028;-84
2021/04/01 08:53:27;;;;;;;9.48;2.35;;;;;;;;;;5074448;28;20039;-85
2021/04/01 08:56:17;;;;;;;12.25;2.15;;;;;;;;;;5092032;28;20047;-84
2021/04/01 08:58:48;;;;;;;7.30;1.77;;;;;;;;;;5074262;28;20488;-84
2021/04/01 09:01:15;;;;;;;8.52;1.70;;;;;;;;;;5092341;28;20039;-84
2021/04/01 09:03:43;;;;;;;10.35;1.80;;;;;;;;;;5074740;28;20048;-84
2021/04/01 09:06:13;;;;;;;6.18;1.30;;;;;;;;;;5074293;28;20058;-84
2021/04/01 09:08:47;;;;;;;10.07;1.90;;;;;;;;;;5074724;28;20047;-85
2021/04/01 09:11:13;;;;;;;7.25;1.60;;;;;;;;;;5092282;28;20089;-86
2021/04/01 09:13:46;;;;;;;9.77;1.80;;;;;;;;;;5057613;28;20097;-88
2021/04/01 09:16:20;;;;;;;7.15;2.13;;;;;;;;;;5058255;28;20040;-88
2021/04/01 09:18:46;;;;;;;5.95;1.40;;;;;;;;;;5074869;28;20036;-87
2021/04/01 09:21:12;;;;;;;9.45;1.83;;;;;;;;;;5092092;28;20426;-86
2021/04/01 09:23:39;;;;;;;6.15;1.40;;;;;;;;;;5057398;28;20043;-88
2021/04/01 09:26:06;;;;;;;11.40;1.40;;;;;;;;;;5057203;28;20036;-88
2021/04/01 09:28:32;;;;;;;7.78;1.83;;;;;;;;;;5057378;28;20040;-88
2021/04/01 09:31:00;;;;;;;6.22;1.63;;;;;;;;;;5074180;28;20033;-89
2021/04/01 09:33:26;;;;;;;6.32;1.50;;;;;;;;;;5057584;28;20032;-88
2021/04/01 09:35:52;;;;;;;7.25;1.80;;;;;;;;;;5054200;28;20036;-86
2021/04/01 09:38:18;;;;;;;9.02;1.40;;;;;;;;;;5071895;28;20424;-85
2021/04/01 09:40:45;;;;;;;8.50;1.27;;;;;;;;;;5070480;28;20094;-87
2021/04/01 09:43:19;;;;;;;8.02;1.88;;;;;;;;;;5070316;28;20499;-88
2021/04/01 09:45:49;;;;;;;10.40;1.50;;;;;;;;;;5053485;28;20051;-88
2021/04/01 09:48:15;;;;;;;10.18;1.75;;;;;;;;;;5071557;28;20143;-87
2021/04/01 09:50:45;;;;;;;11.35;2.03;;;;;;;;;;5055876;28;20190;-88
2021/04/01 09:53:20;;;;;;;11.10;2.22;;;;;;;;;;5057135;28;20037;-88
2021/04/01 09:55:47;;;;;;;10.52;1.73;;;;;;;;;;5073737;28;20476;-87
2021/04/01 09:58:18;;;;;;;9.02;1.70;;;;;;;;;;5057258;28;20472;-85
2021/04/01 10:03:22;;;;;;;12.85;2.45;;;;;;;;;;5091560;28;20067;-85
2021/04/01 10:05:51;;;;;;;7.00;1.85;;;;;;;;;;5073549;28;20050;-86
2021/04/01 10:08:24;;;;;;;10.05;2.53;;;;;;;;;;5044423;28;20472;-86
2021/04/01 10:10:50;;;;;;;15.32;2.88;;;;;;;;;;5053375;28;20032;-85
2021/04/01 10:13:17;;;;;;;10.18;1.90;;;;;;;;;;5036796;28;20119;-85
2021/04/01 10:15:43;;;;;;;10.40;2.20;;;;;;;;;;5053405;28;20033;-84
2021/04/01 10:18:10;;;;;;;9.05;1.70;;;;;;;;;;5071435;28;20040;-87
2021/04/01 10:20:36;;;;;;;12.45;1.88;;;;;;;;;;5042466;28;20037;-86
2021/04/01 10:23:06;;;;;;;13.98;2.03;;;;;;;;;;5052503;28;20067;-88
2021/04/01 10:25:32;;;;;;;14.88;2.38;;;;;;;;;;5053186;28;20071;-88
2021/04/01 10:28:09;;;;;;;13.70;2.30;;;;;;;;;;5072627;28;20395;-88
2021/04/01 10:30:35;;;;;;;7.60;2.10;;;;;;;;;;5057107;28;20483;-88
2021/04/01 10:33:06;;;;;;;9.23;2.17;;;;;;;;;;5056919;28;20097;-87
2021/04/01 10:35:33;;;;;;;10.57;1.92;;;;;;;;;;5073427;28;20115;-87
2021/04/01 10:37:59;;;;;;;12.50;1.95;;;;;;;;;;5056679;28;20045;-87
2021/04/01 10:40:25;;;;;;;13.93;1.90;;;;;;;;;;5057107;28;20514;-88
2021/04/01 10:43:04;;;;;;;11.30;2.17;;;;;;;;;;5074057;28;20037;-88
2021/04/01 10:45:38;;;;;;;11.48;2.38;;;;;;;;;;5056823;28;20040;-88
2021/04/01 10:48:07;;;;;;;14.27;2.28;;;;;;;;;;5056917;28;20049;-85
2021/04/01 10:50:33;;;;;;;9.98;2.13;;;;;;;;;;5053967;28;20052;-84
2021/04/01 10:52:59;;;;;;;10.73;2.13;;;;;;;;;;5085085;28;20036;-84
2021/04/01 10:55:26;;;;;;;15.15;2.20;;;;;;;;;;5076197;28;20066;-84
2021/04/01 10:57:52;;;;;;;12.65;1.90;;;;;;;;;;5074329;28;20460;-84
2021/04/01 11:00:19;;;;;;;10.77;2.00;;;;;;;;;;5059641;28;20036;-84
2021/04/01 11:02:52;;;;;;;9.77;1.85;;;;;;;;;;5094162;28;20036;-84
2021/04/01 11:05:23;;;;;;;11.60;2.95;;;;;;;;;;5076352;28;20051;-84
2021/04/01 11:07:51;;;;;;;11.23;2.30;;;;;;;;;;5077272;28;20548;-83
2021/04/01 11:10:24;;;;;;;10.93;2.30;;;;;;;;;;5094196;28;20107;-84
2021/04/01 11:12:51;;;;;;;10.88;2.13;;;;;;;;;;5075034;28;20036;-84
2021/04/01 11:15:17;;;;;;;11.88;2.28;;;;;;;;;;5092270;28;20116;-84
2021/04/01 11:17:44;;;;;;;10.95;1.90;;;;;;;;;;5075306;28;20062;-84
2021/04/01 11:20:10;;;;;;;13.57;2.40;;;;;;;;;;5094105;28;20043;-84
2021/04/01 11:22:37;;;;;;;12.18;2.35;;;;;;;;;;5076180;28;20111;-85
2021/04/01 11:25:12;;;;;;;14.23;2.20;;;;;;;;;;5075835;28;20516;-84
2021/04/01 11:27:54;;;;;;;15.52;2.22;;;;;;;;;;5076143;28;20063;-84
2021/04/01 11:30:21;;;;;;;13.23;2.10;;;;;;;;;;5076103;28;20123;-84
2021/04/01 11:32:51;;;;;;;10.23;2.20;;;;;;;;;;5076073;28;20298;-84
2021/04/01 11:35:17;;;;;;;8.07;1.98;;;;;;;;;;5075999;28;20463;-84
2021/04/01 11:37:45;;;;;;;9.95;2.25;;;;;;;;;;5075663;28;20483;-81
2021/04/01 11:40:12;;;;;;;9.65;2.58;;;;;;;;;;5058575;28;20043;-84
2021/04/01 11:42:38;;;;;;;8.93;2.05;;;;;;;;;;5075142;28;20036;-84
2021/04/01 11:45:05;;;;;;;8.27;2.33;;;;;;;;;;5076077;28;20396;-84
2021/04/01 11:47:31;;;;;;;12.02;2.45;;;;;;;;;;5052312;28;20083;-84
2021/04/01 11:49:57;;;;;;;9.23;1.92;;;;;;;;;;5068945;28;20374;-84
2021/04/01 11:52:24;;;;;;;17.00;2.45;;;;;;;;;;5068829;28;20037;-85
2021/04/01 11:54:53;;;;;;;10.25;2.20;;;;;;;;;;5053462;28;20468;-85
2021/04/01 11:57:21;;;;;;;12.43;2.13;;;;;;;;;;5068189;28;20473;-85
2021/04/01 11:59:56;;;;;;;8.20;2.33;;;;;;;;;;5052444;28;20044;-84
2021/04/01 12:02:23;;;;;;;8.25;2.40;;;;;;;;;;5068301;28;20037;-87
2021/04/01 12:04:52;;;;;;;8.40;2.55;;;;;;;;;;5052103;28;20052;-86
2021/04/01 12:07:18;;;;;;;12.05;2.58;;;;;;;;;;5051902;28;20045;-86
2021/04/01 12:09:50;;;;;;;11.63;2.20;;;;;;;;;;5051693;28;20385;-83
2021/04/01 12:12:32;;;;;;;16.75;3.47;;;;;;;;;;5051661;28;20037;-84
2021/04/01 12:14:58;;;;;;;12.85;3.20;;;;;;;;;;5068274;28;20041;-86
2021/04/01 12:17:31;;;;;;;11.45;2.65;;;;;;;;;;5068263;28;20106;-85
2021/04/01 12:19:58;;;;;;;12.27;2.33;;;;;;;;;;5068085;28;20044;-84
2021/04/01 12:22:31;;;;;;;11.55;2.15;;;;;;;;;;5051447;28;20464;-85
2021/04/01 12:24:57;;;;;;;8.43;2.50;;;;;;;;;;5068216;28;20044;-85
2021/04/01 12:27:30;;;;;;;8.15;1.95;;;;;;;;;;5068166;28;20045;-85
2021/04/01 12:29:56;;;;;;;;;;;;;;;;;;5068427;28;20037;-85
2021/04/01 12:32:26;;;;;;;8.50;2.15;;;;;;;;;;5051284;28;20006;-85
2021/04/01 12:35:02;;;;;;;11.43;2.28;;;;;;;;;;5067540;28;20428;-85
2021/04/01 12:37:29;;;;;;;11.35;2.15;;;;;;;;;;5067776;28;20185;-85
2021/04/01 12:39:55;;;;;;;10.82;2.88;;;;;;;;;;5051005;28;20399;-85
2021/04/01 12:42:21;;;;;;;9.98;2.50;;;;;;;;;;5067850;28;20352;-85
2021/04/01 12:44:47;;;;;;;10.82;2.47;;;;;;;;;;5067754;28;20097;-84
2021/04/01 12:47:21;;;;;;;10.48;2.55;;;;;;;;;;5078219;28;20059;-85
2021/04/01 12:49:47;;;;;;;9.63;2.38;;;;;;;;;;5057698;28;20443;-86
2021/04/01 12:52:13;;;;;;;12.55;2.67;;;;;;;;;;5074603;28;20036;-85
2021/04/01 12:54:42;;;;;;;8.93;2.20;;;;;;;;;;5092228;28;20039;-85
2021/04/01 12:57:15;;;;;;;12.35;3.15;;;;;;;;;;5074601;28;20047;-85
2021/04/01 12:59:47;;;;;;;10.82;2.45;;;;;;;;;;5074762;28;20039;-85
2021/04/01 13:02:15;;;;;;;10.07;2.23;;;;;;;;;;5058732;28;20036;-85
2021/04/01 13:04:43;;;;;;;7.93;1.90;;;;;;;;;;5057817;28;20706;-85
2021/04/01 13:12:16;;;;;;;10.27;2.47;;;;;;;;;;5075720;28;20040;-85
2021/04/01 13:14:42;;;;;;;8.68;1.95;;;;;;;;;;5074089;28;20454;-85
2021/04/01 13:17:08;;;;;;;6.05;2.13;;;;;;;;;;5074205;28;20074;-85
2021/04/01 13:19:34;;;;;;;8.90;1.98;;;;;;;;;;5073926;28;20544;-85
2021/04/01 13:27:01;;;;;;;7.93;2.00;;;;;;;;;;5092015;28;20434;-87
2021/04/01 13:29:29;;;;;;;6.18;1.80;;;;;;;;;;5092042;28;20514;-88
2021/04/01 13:32:02;;;;;;;5.13;1.70;;;;;;;;;;5057595;28;20073;-88
2021/04/01 13:37:11;;;;;;;7.38;1.80;;;;;;;;;;5075885;28;20032;-89
2021/04/01 13:39:41;;;;;;;6.55;1.90;;;;;;;;;;5074854;28;20036;-89
2021/04/01 13:47:06;;;;;;;4.80;1.67;;;;;;;;;;5066324;28;20517;-88
2021/04/01 13:49:32;;;;;;;6.40;1.77;;;;;;;;;;5066902;28;20040;-88
2021/04/01 13:57:29;;;;;;;6.70;1.92;;;;;;;;;;5051398;28;20037;-87
2021/04/01 14:00:17;;;;;;;6.60;2.60;;;;;;;;;;5050267;28;20471;-87
2021/04/01 14:11:05;;;;;;;6.15;2.30;;;;;;;;;;5055343;28;20142;-86
2021/04/01 14:13:33;;;;;;;3.88;2.05;;;;;;;;;;5070470;28;20048;-86
2021/04/01 14:15:59;;;;;;;5.15;2.30;;;;;;;;;;5053900;28;20087;-87
2021/04/01 14:18:25;;;;;;;5.20;2.17;;;;;;;;;;5053987;28;20037;-86
2021/04/01 14:20:52;;;;;;;8.95;3.10;;;;;;;;;;5070398;28;20033;-85
2021/04/01 14:23:22;;;;;;;7.03;2.80;;;;;;;;;;5070337;28;20460;-82
2021/04/01 14:25:49;;;;;;;6.03;2.40;;;;;;;;;;5053765;28;20044;-86
2021/04/01 14:28:15;;;;;;;8.93;2.35;;;;;;;;;;5070393;28;20041;-85
2021/04/01 14:30:41;;;;;;;7.60;2.10;;;;;;;;;;5070312;28;20079;-84
2021/04/01 14:33:07;;;;;;;8.90;2.60;;;;;;;;;;5070200;28;20092;-86
2021/04/01 14:35:34;;;;;;;6.85;3.00;;;;;;;;;;5053350;28;20060;-85
2021/04/01 14:38:04;;;;;;;9.98;3.00;;;;;;;;;;5053523;28;20060;-84
2021/04/01 14:40:36;;;;;;;9.50;3.00;;;;;;;;;;5054763;28;20112;-84
2021/04/01 14:43:11;;;;;;;7.22;2.83;;;;;;;;;;5053593;28;20033;-86
2021/04/01 14:45:38;;;;;;;7.45;2.78;;;;;;;;;;5053587;28;20045;-85
2021/04/01 14:48:04;;;;;;;8.40;2.72;;;;;;;;;;5076700;28;20031;-83
2021/04/01 14:50:30;;;;;;;7.80;3.30;;;;;;;;;;5077618;28;20118;-84
2021/04/01 14:52:56;;;;;;;8.95;2.72;;;;;;;;;;5094844;28;20036;-85
2021/04/01 14:55:22;;;;;;;7.68;2.72;;;;;;;;;;5076609;28;20032;-86
2021/04/01 14:57:49;;;;;;;5.20;2.75;;;;;;;;;;5060124;28;20039;-86
2021/04/01 15:00:16;;;;;;;6.45;2.53;;;;;;;;;;5076635;28;20062;-82
2021/04/01 15:02:43;;;;;;;5.72;2.55;;;;;;;;;;5076570;28;20028;-85
2021/04/01 15:05:09;;;;;;;13.07;2.38;;;;;;;;;;5094337;28;20348;-85
2021/04/01 15:07:35;;;;;;;7.50;2.15;;;;;;;;;;5059633;28;20044;-85
2021/04/01 15:10:11;;;;;;;7.57;2.50;;;;;;;;;;5076758;28;20387;-85
2021/04/01 15:12:37;;;;;;;8.10;3.45;;;;;;;;;;5075890;28;20040;-85
2021/04/01 15:15:05;;;;;;;9.15;2.80;;;;;;;;;;5093893;28;20048;-84
2021/04/01 15:17:31;;;;;;;7.85;2.40;;;;;;;;;;5075758;28;20089;-84
2021/04/01 15:20:00;;;;;;;6.22;2.30;;;;;;;;;;5062045;28;20231;-84
2021/04/01 15:22:27;;;;;;;7.03;2.38;;;;;;;;;;5072966;28;20036;-85
2021/04/01 15:24:53;;;;;;;7.57;2.30;;;;;;;;;;5056113;28;20072;-84
2021/04/01 15:27:19;;;;;;;5.93;2.20;;;;;;;;;;5074118;28;20032;-85
2021/04/01 15:29:46;;;;;;;6.35;2.17;;;;;;;;;;5072540;28;20041;-85
2021/04/01 15:32:12;;;;;;;5.03;2.20;;;;;;;;;;5072682;28;20039;-85
2021/04/01 15:34:38;;;;;;;8.25;2.05;;;;;;;;;;5055918;28;20036;-85
2021/04/01 15:37:04;;;;;;;3.85;1.77;;;;;;;;;;5056857;28;20040;-85
2021/04/01 15:39:31;;;;;;;5.10;1.90;;;;;;;;;;5056036;28;20476;-84
2021/04/01 15:41:57;;;;;;;8.02;2.40;;;;;;;;;;5055477;28;20041;-85
2021/04/01 15:44:23;;;;;;;8.65;2.38;;;;;;;;;;5071986;28;20040;-86
2021/04/01 15:46:49;;;;;;;5.70;2.05;;;;;;;;;;5068694;28;20060;-85
2021/04/01 15:49:15;;;;;;;8.32;2.25;;;;;;;;;;5052201;28;20044;-85
2021/04/01 15:51:41;;;;;;;9.55;2.47;;;;;;;;;;5052020;28;20481;-85
2021/04/01 15:54:07;;;;;;;6.97;2.20;;;;;;;;;;5068491;28;20048;-85
2021/04/01 15:56:33;;;;;;;7.88;2.35;;;;;;;;;;5068643;28;20041;-87
2021/04/01 15:59:01;;;;;;;8.07;2.40;;;;;;;;;;5068704;28;20124;-85
2021/04/01 16:01:27;;;;;;;5.43;2.50;;;;;;;;;;5035250;28;20044;-84
2021/04/01 16:03:53;;;;;;;8.05;2.58;;;;;;;;;;5052967;28;20039;-85
2021/04/01 16:06:19;;;;;;;7.32;2.50;;;;;;;;;;5051961;28;20037;-85
2021/04/01 16:08:45;;;;;;;9.50;3.13;;;;;;;;;;5068117;28;20102;-85
2021/04/01 16:11:11;;;;;;;6.68;3.47;;;;;;;;;;5052837;28;20527;-85
2021/04/01 16:13:37;;;;;;;6.82;3.13;;;;;;;;;;5067993;28;20037;-85
2021/04/01 16:16:06;;;;;;;9.85;3.83;;;;;;;;;;5067743;28;20045;-84
2021/04/01 16:18:32;;;;;;;7.88;3.65;;;;;;;;;;5068022;28;20112;-85
2021/04/01 16:20:58;;;;;;;9.45;4.43;;;;;;;;;;5051610;28;20072;-84
2021/04/01 16:23:24;;;;;;;9.20;3.58;;;;;;;;;;5067835;28;20519;-86
2021/04/01 16:25:50;;;;;;;7.63;3.50;;;;;;;;;;5067197;28;20125;-84
2021/04/01 16:28:17;;;;;;;7.45;3.22;;;;;;;;;;5067975;28;20043;-84